Alpha, California Weather observations

Data are for observation ending at time listed.
 Day   Time    Ave.   Ave.  Ave.  Vector   Max.   Stn.    Total    Solar   Ave.   Snow 
  of    of     Air    Rel.  Wind   Wind    Wind   Baro.  Precip.   Rad.    Soil   Depth
Year   Day     Temp.  Hum.  Speed  Dir.    Gust   Pres.                    Temp.       
2016   (PST)    F      %     mph   deg.    mph     mb.     in.     W/m2     F      in. 
---------------------------------------------------------------------------------------  
 121   13:40   36.3    68   15.7    79     29.1   779.5    0.00     613    999.0   53.1
 121   13:50   36.3    67   14.7    79     33.0   779.5    0.00     600    999.0   53.3
 121   14:00   36.8    64   13.8    76     31.0   779.5    0.00     586    999.0   52.7
 121   14:10   37.1    63   14.8    78     27.5   779.5    0.00     570    999.0   53.3
 121   14:20   37.4    64   13.0    78     25.1   779.4    0.00     524    999.0   52.8
 121   14:30   37.6    63   11.9    79     24.8   779.4    0.00     518    999.0   53.0
 121   14:40   38.3    61   10.6    72     31.5   779.6    0.00     315    999.0   62.9
 121   14:50   38.1    61   13.0    79     24.7   779.6    0.00     309    999.0   52.5
 121   15:00   38.1    60   12.4    78     25.6   779.7    0.00     273    999.0   52.6
 121   15:10   38.2    61   10.5    63     28.4   779.7    0.00     100    999.0   52.7
 121   15:20   38.2    60   11.1    70     29.5   779.7    0.00     113    999.0   52.7
 121   15:30   38.2    59   15.5    84     36.9   779.8    0.00     118    999.0   52.8
 121   15:40   38.2    61   14.4    93     30.8   779.9    0.00      73    999.0   52.8
 121   15:50   38.4    62   12.3    88     25.6   779.9    0.00     126    999.0   52.9
 121   16:00   38.6    62    9.6    87     23.8   779.9    0.00      84    999.0   53.1
 121   16:10   38.6    62    9.3    76     20.3   779.8    0.00      28    999.0   53.0
 121   16:20   38.6    61   11.7    75     25.8   779.8    0.00      27    999.0   53.0
 121   16:30   38.4    62   10.9    81     25.4   779.9    0.00     197    999.0   52.9
 121   16:40  999.0   999  999.0   999    999.0   999.0   999.00     999    999.0  999.0
 121   16:50  999.0   999  999.0   999    999.0   999.0   999.00     999    999.0  999.0
 121   17:00  999.0   999  999.0   999    999.0   999.0   999.00     999    999.0  999.0
 121   17:10  999.0   999  999.0   999    999.0   999.0   999.00     999    999.0  999.0
 121   17:20  999.0   999  999.0   999    999.0   999.0   999.00     999    999.0  999.0
 121   17:30  999.0   999  999.0   999    999.0   999.0   999.00     999    999.0  999.0
 121   17:40  999.0   999  999.0   999    999.0   999.0   999.00     999    999.0  999.0
 121   17:50  999.0   999  999.0   999    999.0   999.0   999.00     999    999.0  999.0
 121   18:00  999.0   999  999.0   999    999.0   999.0   999.00     999    999.0  999.0
 121   18:10  999.0   999  999.0   999    999.0   999.0   999.00     999    999.0  999.0
 121   18:20  999.0   999  999.0   999    999.0   999.0   999.00     999    999.0  999.0
 121   18:30  999.0   999  999.0   999    999.0   999.0   999.00     999    999.0  999.0
 121   18:40  999.0   999  999.0   999    999.0   999.0   999.00     999    999.0  999.0
 121   18:50  999.0   999  999.0   999    999.0   999.0   999.00     999    999.0  999.0
 121   19:00  999.0   999  999.0   999    999.0   999.0   999.00     999    999.0  999.0
 121   19:10  999.0   999  999.0   999    999.0   999.0   999.00     999    999.0  999.0
 121   19:20  999.0   999  999.0   999    999.0   999.0   999.00     999    999.0  999.0
 121   19:30  999.0   999  999.0   999    999.0   999.0   999.00     999    999.0  999.0
 121   19:40  999.0   999  999.0   999    999.0   999.0   999.00     999    999.0  999.0
 121   19:50  999.0   999  999.0   999    999.0   999.0   999.00     999    999.0  999.0
 121   20:00  999.0   999  999.0   999    999.0   999.0   999.00     999    999.0  999.0
 121   20:10  999.0   999  999.0   999    999.0   999.0   999.00     999    999.0  999.0
 121   20:20  999.0   999  999.0   999    999.0   999.0   999.00     999    999.0  999.0
 121   20:30  999.0   999  999.0   999    999.0   999.0   999.00     999    999.0  999.0
 121   20:40   37.5    62   10.7    70     25.3   781.3    0.00       0    999.0   53.2
 121   20:50   37.5    61   10.8    74     25.5   781.4    0.00       0    999.0   53.2
 121   21:00   37.7    61   13.5    80     23.8   781.7    0.00       0    999.0   53.3
 121   21:10   37.5    61   12.2    76     26.7   781.7    0.00       0    999.0   53.2
 121   21:20   37.4    61   12.1    77     26.0   781.6    0.00       0    999.0   53.0
 121   21:30  999.0   999  999.0   999    999.0   999.0   999.00     999    999.0  999.0
 121   21:40   37.0    60    9.7    69     24.1   781.6    0.00       0    999.0   53.2
 121   21:50   37.2    59   11.4    72     28.8   781.5    0.00       0    999.0   53.2
 121   22:00   37.1    58    9.2    64     20.3   781.6    0.00       0    999.0   53.2
 121   22:10   37.2    58    9.9    66     21.9   781.7    0.00       0    999.0   53.2
 121   22:20   37.2    58   12.0    72     24.8   781.7    0.00       0    999.0   53.3
 121   22:30   37.3    57   10.9    66     21.8   781.6    0.00       0    999.0   53.3
 121   22:40   37.3    57   10.3    65     25.1   781.6    0.00       0    999.0   53.2
 121   22:50   37.3    56   11.0    68     24.8   781.6    0.00       0    999.0   53.3
 121   23:00   37.4    55   10.5    68     25.5   781.7    0.00       0    999.0   53.3
 121   23:10   37.4    54   10.4    71     22.7   781.7    0.00       0    999.0   53.2
 121   23:20   37.3    55    9.8    64     21.5   781.8    0.00       0    999.0   53.2
 121   23:30   37.3    56    9.0    64     20.2   781.7    0.00       0    999.0   53.2
 121   23:40   37.3    56    9.4    61     23.5   781.6    0.00       0    999.0   53.2
 121   23:50   37.3    55    8.7    63     19.4   781.6    0.00       0    999.0   53.2
 122    0:00   37.2    55    9.3    64     19.9   781.5    0.00       0    999.0   53.3
 122    0:10   37.3    54    8.3    59     17.5   781.5    0.00       0    999.0   53.2
 122    0:20   37.3    54    7.7    64     19.5   781.5    0.00       0    999.0   53.2
 122    0:30   37.3    54    8.4    66     27.0   781.4    0.00       0    999.0   53.3
 122    0:40   37.2    54    9.4    73     19.0   781.4    0.00       0    999.0   53.3
 122    0:50   37.4    53   10.2    77     25.9   781.3    0.00       0    999.0   53.3
 122    1:00   37.3    54    9.3    75     18.4   781.3    0.00       0    999.0   53.3
 122    1:10   37.3    54    9.0    76     22.1   781.3    0.00       0    999.0   53.3
 122    1:20   37.4    55    9.2    78     19.0   781.2    0.00       0    999.0   53.2
 122    1:30   37.2    56    8.3    70     19.2   781.2    0.00       0    999.0   53.3
 122    1:40   37.2    57    7.9    73     18.9   781.1    0.00       0    999.0   53.2
 122    1:50   37.0    58    7.9    67     19.0   781.0    0.00       0    999.0   53.2
 122    2:00   36.8    59    7.1    62     20.0   781.0    0.00       0    999.0   53.2
 122    2:10   36.9    59    7.9    64     19.1   781.1    0.00       0    999.0   53.3
 122    2:20   36.7    60    7.7    67     18.3   781.1    0.00       0    999.0   53.2
 122    2:30   36.7    60    7.5    64     17.9   781.1    0.00       0    999.0   53.2
 122    2:40   36.6    60    6.4    63     14.9   781.2    0.00       0    999.0   53.4
 122    2:50   36.4    61    6.8    63     16.8   781.3    0.00       0    999.0   53.5
 122    3:00   36.2    62    5.8    56     13.9   781.3    0.00       0    999.0   53.3
 122    3:10   36.0    63    6.2    56     14.8   781.4    0.00       0    999.0   53.4
 122    3:20   36.1    62    6.5    56     12.9   781.3    0.00       0    999.0   53.3
 122    3:30   35.9    63    5.9    55     15.0   781.3    0.00       0    999.0   53.4
 122    3:40   35.9    63    6.0    48     17.0   781.3    0.00       0    999.0   53.3
 122    3:50   35.9    63    6.0    63     15.6   781.4    0.00       0    999.0   53.3
 122    4:00   35.7    62    5.7    69     13.4   781.3    0.00       0    999.0   53.4
 122    4:10   35.8    61    6.7    71     17.2   781.3    0.00       0    999.0   53.4
 122    4:20   35.5    63    7.5    94     15.7   781.3    0.00       0    999.0   53.3
 122    4:30   35.2    63    8.0    88     16.4   781.3    0.00       0    999.0   53.4
 122    4:40   35.2    64    6.8    87     17.8   781.3    0.00       0    999.0   53.4
 122    4:50   34.9    65    7.1    91     14.3   781.4    0.00       0    999.0   53.4
 122    5:00   34.7    66    5.6    71     12.1   781.3    0.00       1    999.0   53.4
 122    5:10   34.8    65    6.2    62     15.3   781.4    0.00       3    999.0   53.4
 122    5:20   35.0    64    7.0    69     19.4   781.5    0.00       6    999.0   53.5
 122    5:30   35.7    61    7.9    77     17.6   781.5    0.00      10    999.0   53.3
 122    5:40   35.7    62    7.5    79     23.3   781.6    0.00      15    999.0   53.4
 122    5:50   35.8    62    7.4    85     13.7   781.7    0.00      17    999.0   53.3
 122    6:00   36.2    60    7.6    97     14.5   781.8    0.00      17    999.0   53.4
 122    6:10   36.4    60    8.4    95     15.1   781.9    0.00      20    999.0   53.4
 122    6:20   36.5    60    8.7   113     14.0   782.0    0.00      51    999.0   53.4
 122    6:30   36.8    60    8.7   118     14.0   782.1    0.00      43    999.0   53.3
 122    6:40   37.2    59    8.5   118     15.8   782.2    0.00     118    999.0   53.3
 122    6:50   37.7    58    8.5   114     14.7   782.3    0.00     188    999.0   53.3
 122    7:00   38.3    57    8.6   106     13.7   782.4    0.00     213    999.0   53.6
 122    7:10   38.6    57    7.6   104     13.3   782.4    0.00     239    999.0  116.6
 122    7:20   39.0    56    7.5   103     14.2   782.5    0.00     264    999.0  104.8
 122    7:30   39.2    55    8.5   109     18.9   782.6    0.00     289    999.0   73.7
 122    7:40   39.4    55    8.0   106     14.2   782.7    0.00     312    999.0   73.6
 122    7:50   39.7    56    8.3   115     17.8   782.6    0.00     335    999.0   74.1
 122    8:00   39.8    56    8.4   114     16.9   782.7    0.00     361    999.0   62.9
 122    8:10   39.9    56    8.3   109     14.2   782.7    0.00     385    999.0  157.7
 122    8:20   40.6    57    7.3   105     14.7   782.8    0.00     408    999.0  157.7
 122    8:30   40.9    56    6.4   100     14.1   782.7    0.00     429    999.0  157.8
 122    8:40   41.3    55    7.9   103     15.6   782.6    0.00     450    999.0   72.9
 122    8:50   41.2    56    7.6   100     14.0   782.6    0.00     472    999.0   52.4
 122    9:00   41.9    54    7.3   108     16.3   782.6    0.00     491    999.0   74.0
 122    9:10   41.8    52    7.9   102     14.4   782.6    0.00     509    999.0  157.8
 122    9:20   42.3    50    7.7   121     16.4   782.7    0.00     526    999.0  158.0
 122    9:30   42.1    49    9.6   118     16.9   782.8    0.00     544    999.0  158.0
 122    9:40   42.4    50    8.4   119     15.6   782.9    0.00     559    999.0  136.2
 122    9:50   43.5    49    6.8   128     16.2   783.0    0.00     474    999.0   83.9
 122   10:00   43.9    49    7.5   127     15.9   783.0    0.00     575    999.0  116.2
 122   10:10   43.8    47    7.8   129     15.9   783.1    0.00     604    999.0  136.1
 122   10:20   43.7    46    7.9   124     15.9   783.2    0.00     616    999.0   94.2
 122   10:30   44.0    47    6.6   128     13.5   783.1    0.00     563    999.0   73.0
 122   10:40   44.0    48    5.6   111     11.9   783.2    0.00     497    999.0  125.9
 122   10:50   44.1    45    7.0   113     14.8   783.2    0.00     658    999.0  114.7
 122   11:00   45.0    45    4.2   111     11.0   783.2    0.00     635    999.0   62.3
 122   11:10   45.5    44    5.9   119     11.6   783.2    0.00     695    999.0   61.0
 122   11:20   46.1    41    5.9   125     13.8   783.1    0.00     698    999.0   51.8
 122   11:30   45.6    42    6.2   120     12.2   783.1    0.00     697    999.0   61.5
 122   11:40   45.7    43    5.4    85     12.1   783.1    0.00     700    999.0  137.0
 122   11:50   45.6    44    5.0    85     10.7   783.1    0.00     694    999.0  125.6
 122   12:00   46.4    42    3.3    59      8.7   783.1    0.00     709    999.0  136.4
 122   12:10   46.7    41    4.2    69     10.7   783.1    0.00     684    999.0   82.2
 122   12:20   46.4    41    3.4    69      7.2   783.0    0.00     451    999.0   93.5
 122   12:30   45.9    43    3.2    64      7.1   783.0    0.00     570    999.0  125.6
 122   12:40   46.1    42    2.9    48      9.0   783.0    0.00     356    999.0  148.7
 122   12:50   45.6    43    2.1    46      6.3   783.1    0.00     142    999.0  161.2
 122   13:00   44.9    44    1.2    82      5.3   783.2    0.00     144    999.0  159.7
 122   13:10   45.0    45    1.2   123      5.3   783.4    0.00     155    999.0  159.8
 122   13:20   44.0    54    4.4   206     10.7   783.5    0.00     164    999.0  161.9
 122   13:30   43.2    62    5.4   207     10.7   783.5    0.00     388    999.0  162.2

Return to Alpha graphs page.


Western Regional Climate Center,wrcc@dri.edu